sensor_id;sensor_type;location;lat;lon;timestamp;P1;durP1;ratioP1;P2;durP2;ratioP2
54145;SDS011;40052;49.422;7.738;2022-07-23T00:02:17;9.30;;;7.60;;
54145;SDS011;40052;49.422;7.738;2022-07-23T00:04:43;8.73;;;7.82;;
54145;SDS011;40052;49.422;7.738;2022-07-23T00:07:08;9.25;;;8.07;;
54145;SDS011;40052;49.422;7.738;2022-07-23T00:09:38;12.25;;;8.02;;
54145;SDS011;40052;49.422;7.738;2022-07-23T00:12:03;9.25;;;7.85;;
54145;SDS011;40052;49.422;7.738;2022-07-23T00:14:29;12.95;;;7.80;;
54145;SDS011;40052;49.422;7.738;2022-07-23T00:16:59;10.18;;;7.75;;
54145;SDS011;40052;49.422;7.738;2022-07-23T00:19:25;10.48;;;8.27;;
54145;SDS011;40052;49.422;7.738;2022-07-23T00:21:50;10.93;;;8.73;;
54145;SDS011;40052;49.422;7.738;2022-07-23T00:24:16;9.88;;;8.15;;
54145;SDS011;40052;49.422;7.738;2022-07-23T00:26:41;11.00;;;8.68;;
54145;SDS011;40052;49.422;7.738;2022-07-23T00:29:09;11.52;;;7.72;;
54145;SDS011;40052;49.422;7.738;2022-07-23T00:31:39;9.82;;;7.60;;
54145;SDS011;40052;49.422;7.738;2022-07-23T00:34:04;10.90;;;7.78;;
54145;SDS011;40052;49.422;7.738;2022-07-23T00:36:30;10.48;;;8.20;;
54145;SDS011;40052;49.422;7.738;2022-07-23T00:38:57;11.50;;;7.72;;
54145;SDS011;40052;49.422;7.738;2022-07-23T00:41:25;11.13;;;8.55;;
54145;SDS011;40052;49.422;7.738;2022-07-23T00:43:50;9.55;;;7.80;;
54145;SDS011;40052;49.422;7.738;2022-07-23T00:46:19;9.50;;;7.38;;
54145;SDS011;40052;49.422;7.738;2022-07-23T00:48:48;10.98;;;7.78;;
54145;SDS011;40052;49.422;7.738;2022-07-23T00:51:17;12.20;;;8.02;;
54145;SDS011;40052;49.422;7.738;2022-07-23T00:53:44;12.23;;;8.18;;
54145;SDS011;40052;49.422;7.738;2022-07-23T00:56:12;11.20;;;8.50;;
54145;SDS011;40052;49.422;7.738;2022-07-23T00:58:38;9.65;;;7.80;;
54145;SDS011;40052;49.422;7.738;2022-07-23T01:01:05;9.80;;;7.90;;
54145;SDS011;40052;49.422;7.738;2022-07-23T01:03:30;10.88;;;8.57;;
54145;SDS011;40052;49.422;7.738;2022-07-23T01:05:56;10.23;;;8.10;;
54145;SDS011;40052;49.422;7.738;2022-07-23T01:08:22;12.63;;;8.68;;
54145;SDS011;40052;49.422;7.738;2022-07-23T01:10:48;10.50;;;8.52;;
54145;SDS011;40052;49.422;7.738;2022-07-23T01:13:16;18.08;;;8.50;;
54145;SDS011;40052;49.422;7.738;2022-07-23T01:15:43;10.05;;;7.93;;
54145;SDS011;40052;49.422;7.738;2022-07-23T01:18:10;12.82;;;8.52;;
54145;SDS011;40052;49.422;7.738;2022-07-23T01:20:37;9.75;;;7.30;;
54145;SDS011;40052;49.422;7.738;2022-07-23T01:23:05;9.57;;;8.48;;
54145;SDS011;40052;49.422;7.738;2022-07-23T01:25:30;9.88;;;7.63;;
54145;SDS011;40052;49.422;7.738;2022-07-23T01:27:58;10.23;;;7.68;;
54145;SDS011;40052;49.422;7.738;2022-07-23T01:30:24;10.63;;;7.90;;
54145;SDS011;40052;49.422;7.738;2022-07-23T01:32:51;10.82;;;7.85;;
54145;SDS011;40052;49.422;7.738;2022-07-23T01:35:17;11.90;;;8.05;;
54145;SDS011;40052;49.422;7.738;2022-07-23T01:37:44;10.05;;;8.55;;
54145;SDS011;40052;49.422;7.738;2022-07-23T01:40:10;10.93;;;7.72;;
54145;SDS011;40052;49.422;7.738;2022-07-23T01:42:35;9.98;;;7.28;;
54145;SDS011;40052;49.422;7.738;2022-07-23T01:45:01;11.73;;;7.90;;
54145;SDS011;40052;49.422;7.738;2022-07-23T01:47:27;9.40;;;7.40;;
54145;SDS011;40052;49.422;7.738;2022-07-23T01:49:52;9.93;;;8.50;;
54145;SDS011;40052;49.422;7.738;2022-07-23T01:52:18;11.77;;;8.38;;
54145;SDS011;40052;49.422;7.738;2022-07-23T01:54:43;9.25;;;8.10;;
54145;SDS011;40052;49.422;7.738;2022-07-23T01:57:08;8.80;;;7.38;;
54145;SDS011;40052;49.422;7.738;2022-07-23T01:59:34;9.73;;;7.55;;
54145;SDS011;40052;49.422;7.738;2022-07-23T02:02:06;12.40;;;8.10;;
54145;SDS011;40052;49.422;7.738;2022-07-23T02:04:32;9.13;;;7.70;;
54145;SDS011;40052;49.422;7.738;2022-07-23T02:07:01;8.63;;;7.13;;
54145;SDS011;40052;49.422;7.738;2022-07-23T02:09:26;10.98;;;7.82;;
54145;SDS011;40052;49.422;7.738;2022-07-23T02:11:57;11.68;;;8.25;;
54145;SDS011;40052;49.422;7.738;2022-07-23T02:14:23;14.93;;;9.02;;
54145;SDS011;40052;49.422;7.738;2022-07-23T02:16:52;10.20;;;8.48;;
54145;SDS011;40052;49.422;7.738;2022-07-23T02:19:20;13.65;;;9.23;;
54145;SDS011;40052;49.422;7.738;2022-07-23T02:21:47;10.73;;;8.38;;
54145;SDS011;40052;49.422;7.738;2022-07-23T02:24:15;11.13;;;9.00;;
54145;SDS011;40052;49.422;7.738;2022-07-23T02:26:43;12.50;;;8.70;;
54145;SDS011;40052;49.422;7.738;2022-07-23T02:29:11;14.55;;;9.65;;
54145;SDS011;40052;49.422;7.738;2022-07-23T02:31:36;12.02;;;9.30;;
54145;SDS011;40052;49.422;7.738;2022-07-23T02:34:01;12.00;;;8.90;;
54145;SDS011;40052;49.422;7.738;2022-07-23T02:36:27;11.60;;;8.65;;
54145;SDS011;40052;49.422;7.738;2022-07-23T02:38:53;12.38;;;9.35;;
54145;SDS011;40052;49.422;7.738;2022-07-23T02:41:18;10.38;;;9.27;;
54145;SDS011;40052;49.422;7.738;2022-07-23T02:43:46;14.20;;;9.30;;
54145;SDS011;40052;49.422;7.738;2022-07-23T02:46:11;12.68;;;8.50;;
54145;SDS011;40052;49.422;7.738;2022-07-23T02:48:37;11.60;;;9.63;;
54145;SDS011;40052;49.422;7.738;2022-07-23T02:51:02;10.63;;;8.85;;
54145;SDS011;40052;49.422;7.738;2022-07-23T02:53:30;14.48;;;10.25;;
54145;SDS011;40052;49.422;7.738;2022-07-23T02:55:58;12.00;;;9.38;;
54145;SDS011;40052;49.422;7.738;2022-07-23T02:58:24;14.05;;;10.30;;
54145;SDS011;40052;49.422;7.738;2022-07-23T03:00:51;13.48;;;9.52;;
54145;SDS011;40052;49.422;7.738;2022-07-23T03:03:17;13.07;;;8.77;;
54145;SDS011;40052;49.422;7.738;2022-07-23T03:05:43;16.70;;;8.73;;
54145;SDS011;40052;49.422;7.738;2022-07-23T03:08:08;15.45;;;9.23;;
54145;SDS011;40052;49.422;7.738;2022-07-23T03:10:34;11.95;;;8.70;;
54145;SDS011;40052;49.422;7.738;2022-07-23T03:12:59;12.80;;;9.32;;
54145;SDS011;40052;49.422;7.738;2022-07-23T03:15:24;13.60;;;9.30;;
54145;SDS011;40052;49.422;7.738;2022-07-23T03:17:52;13.35;;;9.95;;
54145;SDS011;40052;49.422;7.738;2022-07-23T03:20:19;12.38;;;9.32;;
54145;SDS011;40052;49.422;7.738;2022-07-23T03:22:45;12.45;;;9.98;;
54145;SDS011;40052;49.422;7.738;2022-07-23T03:25:13;12.88;;;9.80;;
54145;SDS011;40052;49.422;7.738;2022-07-23T03:27:41;12.52;;;9.45;;
54145;SDS011;40052;49.422;7.738;2022-07-23T03:30:06;13.20;;;9.10;;
54145;SDS011;40052;49.422;7.738;2022-07-23T03:32:32;12.43;;;10.32;;
54145;SDS011;40052;49.422;7.738;2022-07-23T03:35:00;13.82;;;9.82;;
54145;SDS011;40052;49.422;7.738;2022-07-23T03:37:25;14.63;;;10.45;;
54145;SDS011;40052;49.422;7.738;2022-07-23T03:39:53;12.90;;;9.52;;
54145;SDS011;40052;49.422;7.738;2022-07-23T03:42:19;13.55;;;9.95;;
54145;SDS011;40052;49.422;7.738;2022-07-23T03:44:44;12.93;;;10.35;;
54145;SDS011;40052;49.422;7.738;2022-07-23T03:47:14;14.50;;;9.50;;
54145;SDS011;40052;49.422;7.738;2022-07-23T03:49:42;14.68;;;10.68;;
54145;SDS011;40052;49.422;7.738;2022-07-23T03:52:08;12.60;;;9.93;;
54145;SDS011;40052;49.422;7.738;2022-07-23T03:54:37;10.93;;;9.10;;
54145;SDS011;40052;49.422;7.738;2022-07-23T03:57:05;13.25;;;10.07;;
54145;SDS011;40052;49.422;7.738;2022-07-23T03:59:33;13.25;;;9.45;;
54145;SDS011;40052;49.422;7.738;2022-07-23T04:02:01;12.05;;;9.50;;
54145;SDS011;40052;49.422;7.738;2022-07-23T04:04:26;12.70;;;9.65;;
54145;SDS011;40052;49.422;7.738;2022-07-23T04:06:54;11.25;;;9.38;;
54145;SDS011;40052;49.422;7.738;2022-07-23T04:09:19;12.65;;;10.25;;
54145;SDS011;40052;49.422;7.738;2022-07-23T04:11:45;12.68;;;9.88;;
54145;SDS011;40052;49.422;7.738;2022-07-23T04:14:10;12.57;;;9.88;;
54145;SDS011;40052;49.422;7.738;2022-07-23T04:16:38;12.13;;;10.25;;
54145;SDS011;40052;49.422;7.738;2022-07-23T04:19:03;12.27;;;10.48;;
54145;SDS011;40052;49.422;7.738;2022-07-23T04:21:31;15.13;;;10.57;;
54145;SDS011;40052;49.422;7.738;2022-07-23T04:23:57;12.88;;;9.98;;
54145;SDS011;40052;49.422;7.738;2022-07-23T04:26:22;15.38;;;10.70;;
54145;SDS011;40052;49.422;7.738;2022-07-23T04:28:50;14.10;;;10.05;;
54145;SDS011;40052;49.422;7.738;2022-07-23T04:31:17;14.52;;;9.95;;
54145;SDS011;40052;49.422;7.738;2022-07-23T04:33:43;14.02;;;10.18;;
54145;SDS011;40052;49.422;7.738;2022-07-23T04:36:10;14.10;;;9.77;;
54145;SDS011;40052;49.422;7.738;2022-07-23T04:38:36;11.88;;;9.40;;
54145;SDS011;40052;49.422;7.738;2022-07-23T04:41:01;12.73;;;10.48;;
54145;SDS011;40052;49.422;7.738;2022-07-23T04:43:27;15.20;;;11.52;;
54145;SDS011;40052;49.422;7.738;2022-07-23T04:45:52;13.60;;;10.43;;
54145;SDS011;40052;49.422;7.738;2022-07-23T04:48:18;13.30;;;11.00;;
54145;SDS011;40052;49.422;7.738;2022-07-23T04:50:45;13.07;;;10.02;;
54145;SDS011;40052;49.422;7.738;2022-07-23T04:53:11;14.13;;;11.38;;
54145;SDS011;40052;49.422;7.738;2022-07-23T04:55:36;13.45;;;10.63;;
54145;SDS011;40052;49.422;7.738;2022-07-23T04:58:02;12.82;;;10.45;;
54145;SDS011;40052;49.422;7.738;2022-07-23T05:00:30;13.77;;;9.73;;
54145;SDS011;40052;49.422;7.738;2022-07-23T05:02:55;14.75;;;11.10;;
54145;SDS011;40052;49.422;7.738;2022-07-23T05:05:23;12.50;;;10.52;;
54145;SDS011;40052;49.422;7.738;2022-07-23T05:07:50;13.05;;;10.23;;
54145;SDS011;40052;49.422;7.738;2022-07-23T05:10:16;13.40;;;10.38;;
54145;SDS011;40052;49.422;7.738;2022-07-23T05:12:44;14.02;;;10.35;;
54145;SDS011;40052;49.422;7.738;2022-07-23T05:15:11;12.88;;;9.82;;
54145;SDS011;40052;49.422;7.738;2022-07-23T05:17:37;13.50;;;10.30;;
54145;SDS011;40052;49.422;7.738;2022-07-23T05:20:04;13.55;;;10.43;;
54145;SDS011;40052;49.422;7.738;2022-07-23T05:22:32;14.40;;;10.63;;
54145;SDS011;40052;49.422;7.738;2022-07-23T05:24:58;12.63;;;9.00;;
54145;SDS011;40052;49.422;7.738;2022-07-23T05:27:25;14.15;;;9.48;;
54145;SDS011;40052;49.422;7.738;2022-07-23T05:29:54;14.20;;;9.38;;
54145;SDS011;40052;49.422;7.738;2022-07-23T05:32:19;12.95;;;10.05;;
54145;SDS011;40052;49.422;7.738;2022-07-23T05:34:44;13.85;;;9.63;;
54145;SDS011;40052;49.422;7.738;2022-07-23T05:37:10;13.30;;;10.13;;
54145;SDS011;40052;49.422;7.738;2022-07-23T05:39:37;14.80;;;10.10;;
54145;SDS011;40052;49.422;7.738;2022-07-23T05:42:03;12.10;;;9.40;;
54145;SDS011;40052;49.422;7.738;2022-07-23T05:44:33;13.50;;;9.60;;
54145;SDS011;40052;49.422;7.738;2022-07-23T05:46:59;11.57;;;9.05;;
54145;SDS011;40052;49.422;7.738;2022-07-23T05:49:27;14.13;;;8.85;;
54145;SDS011;40052;49.422;7.738;2022-07-23T05:51:52;14.88;;;9.73;;
54145;SDS011;40052;49.422;7.738;2022-07-23T05:54:19;12.63;;;8.73;;
54145;SDS011;40052;49.422;7.738;2022-07-23T05:56:45;13.05;;;9.93;;
54145;SDS011;40052;49.422;7.738;2022-07-23T05:59:10;12.77;;;9.25;;
54145;SDS011;40052;49.422;7.738;2022-07-23T06:01:37;13.70;;;9.75;;
54145;SDS011;40052;49.422;7.738;2022-07-23T06:04:03;14.88;;;9.15;;
54145;SDS011;40052;49.422;7.738;2022-07-23T06:06:31;13.65;;;9.05;;
54145;SDS011;40052;49.422;7.738;2022-07-23T06:08:56;15.27;;;9.93;;
54145;SDS011;40052;49.422;7.738;2022-07-23T06:11:22;15.35;;;10.02;;
54145;SDS011;40052;49.422;7.738;2022-07-23T06:13:47;12.73;;;9.05;;
54145;SDS011;40052;49.422;7.738;2022-07-23T06:16:12;12.80;;;9.68;;
54145;SDS011;40052;49.422;7.738;2022-07-23T06:18:38;13.35;;;9.15;;
54145;SDS011;40052;49.422;7.738;2022-07-23T06:21:08;12.07;;;9.15;;
54145;SDS011;40052;49.422;7.738;2022-07-23T06:23:34;14.93;;;9.32;;
54145;SDS011;40052;49.422;7.738;2022-07-23T06:26:02;14.02;;;9.48;;
54145;SDS011;40052;49.422;7.738;2022-07-23T06:28:29;12.70;;;9.05;;
54145;SDS011;40052;49.422;7.738;2022-07-23T06:30:55;13.38;;;9.10;;
54145;SDS011;40052;49.422;7.738;2022-07-23T06:33:22;14.50;;;8.93;;
54145;SDS011;40052;49.422;7.738;2022-07-23T06:35:50;12.80;;;9.52;;
54145;SDS011;40052;49.422;7.738;2022-07-23T06:38:18;11.15;;;8.80;;
54145;SDS011;40052;49.422;7.738;2022-07-23T06:40:44;12.45;;;8.68;;
54145;SDS011;40052;49.422;7.738;2022-07-23T06:43:14;17.65;;;10.55;;
54145;SDS011;40052;49.422;7.738;2022-07-23T06:45:40;13.77;;;9.45;;
54145;SDS011;40052;49.422;7.738;2022-07-23T06:48:07;14.23;;;9.57;;
54145;SDS011;40052;49.422;7.738;2022-07-23T06:50:33;11.77;;;8.45;;
54145;SDS011;40052;49.422;7.738;2022-07-23T06:52:58;14.60;;;9.52;;
54145;SDS011;40052;49.422;7.738;2022-07-23T06:55:26;12.00;;;9.05;;
54145;SDS011;40052;49.422;7.738;2022-07-23T06:57:53;13.00;;;9.07;;
54145;SDS011;40052;49.422;7.738;2022-07-23T07:00:19;12.75;;;9.27;;
54145;SDS011;40052;49.422;7.738;2022-07-23T07:02:44;14.07;;;9.75;;
54145;SDS011;40052;49.422;7.738;2022-07-23T07:05:09;13.75;;;9.85;;
54145;SDS011;40052;49.422;7.738;2022-07-23T07:07:35;13.10;;;9.70;;
54145;SDS011;40052;49.422;7.738;2022-07-23T07:10:01;13.73;;;9.88;;
54145;SDS011;40052;49.422;7.738;2022-07-23T07:12:27;13.80;;;9.98;;
54145;SDS011;40052;49.422;7.738;2022-07-23T07:14:53;13.63;;;9.50;;
54145;SDS011;40052;49.422;7.738;2022-07-23T07:17:18;12.75;;;9.30;;
54145;SDS011;40052;49.422;7.738;2022-07-23T07:19:44;13.27;;;9.25;;
54145;SDS011;40052;49.422;7.738;2022-07-23T07:22:09;12.40;;;9.55;;
54145;SDS011;40052;49.422;7.738;2022-07-23T07:24:35;11.77;;;9.50;;
54145;SDS011;40052;49.422;7.738;2022-07-23T07:27:02;13.63;;;9.38;;
54145;SDS011;40052;49.422;7.738;2022-07-23T07:29:30;12.60;;;8.65;;
54145;SDS011;40052;49.422;7.738;2022-07-23T07:31:58;15.13;;;9.27;;
54145;SDS011;40052;49.422;7.738;2022-07-23T07:34:24;19.08;;;9.93;;
54145;SDS011;40052;49.422;7.738;2022-07-23T07:36:54;15.82;;;9.07;;
54145;SDS011;40052;49.422;7.738;2022-07-23T07:39:24;12.20;;;8.77;;
54145;SDS011;40052;49.422;7.738;2022-07-23T07:41:52;14.05;;;8.80;;
54145;SDS011;40052;49.422;7.738;2022-07-23T07:44:17;14.05;;;9.43;;
54145;SDS011;40052;49.422;7.738;2022-07-23T07:46:42;12.98;;;8.98;;
54145;SDS011;40052;49.422;7.738;2022-07-23T07:49:10;13.68;;;9.80;;
54145;SDS011;40052;49.422;7.738;2022-07-23T07:51:36;13.15;;;8.70;;
54145;SDS011;40052;49.422;7.738;2022-07-23T07:54:06;12.50;;;9.48;;
54145;SDS011;40052;49.422;7.738;2022-07-23T07:56:31;13.25;;;9.13;;
54145;SDS011;40052;49.422;7.738;2022-07-23T07:58:57;11.88;;;9.10;;
54145;SDS011;40052;49.422;7.738;2022-07-23T08:01:23;11.77;;;9.10;;
54145;SDS011;40052;49.422;7.738;2022-07-23T08:03:48;13.93;;;9.70;;
54145;SDS011;40052;49.422;7.738;2022-07-23T08:06:14;13.27;;;9.20;;
54145;SDS011;40052;49.422;7.738;2022-07-23T08:08:39;12.35;;;9.10;;
54145;SDS011;40052;49.422;7.738;2022-07-23T08:11:09;11.30;;;8.63;;
54145;SDS011;40052;49.422;7.738;2022-07-23T08:13:34;12.02;;;8.82;;
54145;SDS011;40052;49.422;7.738;2022-07-23T08:16:00;11.98;;;9.18;;
54145;SDS011;40052;49.422;7.738;2022-07-23T08:18:28;10.63;;;8.60;;
54145;SDS011;40052;49.422;7.738;2022-07-23T08:20:56;11.43;;;8.00;;
54145;SDS011;40052;49.422;7.738;2022-07-23T08:23:22;12.40;;;8.52;;
54145;SDS011;40052;49.422;7.738;2022-07-23T08:25:52;11.52;;;8.25;;
54145;SDS011;40052;49.422;7.738;2022-07-23T08:28:18;9.80;;;7.97;;
54145;SDS011;40052;49.422;7.738;2022-07-23T08:30:44;12.35;;;8.23;;
54145;SDS011;40052;49.422;7.738;2022-07-23T08:33:13;11.65;;;8.40;;
54145;SDS011;40052;49.422;7.738;2022-07-23T08:35:41;11.63;;;8.43;;
54145;SDS011;40052;49.422;7.738;2022-07-23T08:38:10;11.23;;;8.82;;
54145;SDS011;40052;49.422;7.738;2022-07-23T08:40:37;11.50;;;8.25;;
54145;SDS011;40052;49.422;7.738;2022-07-23T08:43:08;11.75;;;9.00;;
54145;SDS011;40052;49.422;7.738;2022-07-23T08:45:36;9.30;;;7.72;;
54145;SDS011;40052;49.422;7.738;2022-07-23T08:48:13;10.43;;;8.07;;
54145;SDS011;40052;49.422;7.738;2022-07-23T08:50:44;10.05;;;8.27;;
54145;SDS011;40052;49.422;7.738;2022-07-23T08:53:11;10.48;;;8.13;;
54145;SDS011;40052;49.422;7.738;2022-07-23T08:55:37;10.88;;;7.57;;
54145;SDS011;40052;49.422;7.738;2022-07-23T08:58:02;9.30;;;8.00;;
54145;SDS011;40052;49.422;7.738;2022-07-23T09:00:31;9.57;;;7.90;;
54145;SDS011;40052;49.422;7.738;2022-07-23T09:02:56;8.63;;;7.60;;
54145;SDS011;40052;49.422;7.738;2022-07-23T09:05:22;10.02;;;7.70;;
54145;SDS011;40052;49.422;7.738;2022-07-23T09:08:07;9.90;;;8.18;;
54145;SDS011;40052;49.422;7.738;2022-07-23T09:10:43;9.73;;;8.00;;
54145;SDS011;40052;49.422;7.738;2022-07-23T09:13:30;10.52;;;8.05;;
54145;SDS011;40052;49.422;7.738;2022-07-23T09:16:10;8.02;;;6.78;;
54145;SDS011;40052;49.422;7.738;2022-07-23T09:19:00;9.88;;;7.68;;
54145;SDS011;40052;49.422;7.738;2022-07-23T09:23:59;9.48;;;7.88;;
54145;SDS011;40052;49.422;7.738;2022-07-23T09:26:32;9.88;;;7.97;;
54145;SDS011;40052;49.422;7.738;2022-07-23T09:29:15;11.32;;;7.82;;
54145;SDS011;40052;49.422;7.738;2022-07-23T09:34:20;10.60;;;7.32;;
54145;SDS011;40052;49.422;7.738;2022-07-23T09:36:49;8.23;;;7.30;;
54145;SDS011;40052;49.422;7.738;2022-07-23T09:39:16;8.52;;;7.25;;
54145;SDS011;40052;49.422;7.738;2022-07-23T09:41:49;9.50;;;7.13;;
54145;SDS011;40052;49.422;7.738;2022-07-23T09:44:18;9.13;;;8.18;;
54145;SDS011;40052;49.422;7.738;2022-07-23T09:46:48;8.88;;;7.40;;
54145;SDS011;40052;49.422;7.738;2022-07-23T09:51:54;9.93;;;7.20;;
54145;SDS011;40052;49.422;7.738;2022-07-23T09:57:00;9.02;;;7.13;;
54145;SDS011;40052;49.422;7.738;2022-07-23T09:59:31;9.63;;;7.28;;
54145;SDS011;40052;49.422;7.738;2022-07-23T10:02:03;8.30;;;7.40;;
54145;SDS011;40052;49.422;7.738;2022-07-23T10:04:30;9.48;;;8.38;;
54145;SDS011;40052;49.422;7.738;2022-07-23T10:06:57;9.32;;;7.18;;
54145;SDS011;40052;49.422;7.738;2022-07-23T10:09:27;9.30;;;7.10;;
54145;SDS011;40052;49.422;7.738;2022-07-23T10:11:58;8.48;;;7.68;;
54145;SDS011;40052;49.422;7.738;2022-07-23T10:14:36;8.68;;;7.43;;
54145;SDS011;40052;49.422;7.738;2022-07-23T10:17:03;8.40;;;7.38;;
54145;SDS011;40052;49.422;7.738;2022-07-23T10:19:30;7.95;;;7.15;;
54145;SDS011;40052;49.422;7.738;2022-07-23T10:22:03;8.48;;;7.60;;
54145;SDS011;40052;49.422;7.738;2022-07-23T10:35:58;7.95;;;7.15;;
54145;SDS011;40052;49.422;7.738;2022-07-23T10:38:37;10.25;;;6.90;;
54145;SDS011;40052;49.422;7.738;2022-07-23T10:41:11;10.02;;;6.82;;
54145;SDS011;40052;49.422;7.738;2022-07-23T10:43:37;8.57;;;6.88;;
54145;SDS011;40052;49.422;7.738;2022-07-23T10:46:22;8.85;;;6.65;;
54145;SDS011;40052;49.422;7.738;2022-07-23T10:54:41;6.88;;;6.18;;
54145;SDS011;40052;49.422;7.738;2022-07-23T10:57:07;9.05;;;6.35;;
54145;SDS011;40052;49.422;7.738;2022-07-23T11:02:33;8.18;;;7.05;;
54145;SDS011;40052;49.422;7.738;2022-07-23T11:05:08;9.45;;;6.88;;
54145;SDS011;40052;49.422;7.738;2022-07-23T11:08:10;8.75;;;6.88;;
54145;SDS011;40052;49.422;7.738;2022-07-23T11:10:32;9.43;;;6.97;;
54145;SDS011;40052;49.422;7.738;2022-07-23T11:19:10;7.25;;;6.50;;
54145;SDS011;40052;49.422;7.738;2022-07-23T11:24:15;7.72;;;6.60;;
54145;SDS011;40052;49.422;7.738;2022-07-23T11:32:03;7.80;;;7.00;;
54145;SDS011;40052;49.422;7.738;2022-07-23T11:34:34;7.88;;;6.60;;
54145;SDS011;40052;49.422;7.738;2022-07-23T11:37:00;7.80;;;7.00;;
54145;SDS011;40052;49.422;7.738;2022-07-23T11:39:28;7.38;;;6.60;;
54145;SDS011;40052;49.422;7.738;2022-07-23T11:41:54;8.05;;;6.60;;
54145;SDS011;40052;49.422;7.738;2022-07-23T11:44:26;7.22;;;6.25;;
54145;SDS011;40052;49.422;7.738;2022-07-23T11:46:57;8.32;;;5.90;;
54145;SDS011;40052;49.422;7.738;2022-07-23T11:49:27;7.63;;;6.45;;
54145;SDS011;40052;49.422;7.738;2022-07-23T11:52:03;6.25;;;5.65;;
54145;SDS011;40052;49.422;7.738;2022-07-23T11:55:00;7.75;;;6.47;;
54145;SDS011;40052;49.422;7.738;2022-07-23T11:57:33;8.00;;;6.53;;
54145;SDS011;40052;49.422;7.738;2022-07-23T12:00:05;7.15;;;6.13;;
54145;SDS011;40052;49.422;7.738;2022-07-23T12:02:39;7.38;;;5.85;;
54145;SDS011;40052;49.422;7.738;2022-07-23T12:05:12;6.95;;;6.28;;
54145;SDS011;40052;49.422;7.738;2022-07-23T12:07:44;8.18;;;6.90;;
54145;SDS011;40052;49.422;7.738;2022-07-23T12:12:36;9.60;;;6.07;;
54145;SDS011;40052;49.422;7.738;2022-07-23T12:15:07;6.55;;;5.95;;
54145;SDS011;40052;49.422;7.738;2022-07-23T12:17:35;11.55;;;7.30;;
54145;SDS011;40052;49.422;7.738;2022-07-23T12:20:03;7.32;;;6.57;;
54145;SDS011;40052;49.422;7.738;2022-07-23T12:22:38;8.57;;;6.82;;
54145;SDS011;40052;49.422;7.738;2022-07-23T12:25:10;7.90;;;6.38;;
54145;SDS011;40052;49.422;7.738;2022-07-23T12:27:45;7.57;;;6.25;;
54145;SDS011;40052;49.422;7.738;2022-07-23T12:30:26;7.57;;;6.72;;
54145;SDS011;40052;49.422;7.738;2022-07-23T12:32:54;7.07;;;6.43;;
54145;SDS011;40052;49.422;7.738;2022-07-23T12:35:22;7.00;;;6.30;;
54145;SDS011;40052;49.422;7.738;2022-07-23T12:37:59;7.05;;;6.30;;
54145;SDS011;40052;49.422;7.738;2022-07-23T12:40:27;7.75;;;6.05;;
54145;SDS011;40052;49.422;7.738;2022-07-23T12:45:27;8.45;;;6.72;;
54145;SDS011;40052;49.422;7.738;2022-07-23T12:55:37;7.13;;;6.28;;
54145;SDS011;40052;49.422;7.738;2022-07-23T12:58:11;7.85;;;6.68;;
54145;SDS011;40052;49.422;7.738;2022-07-23T13:03:23;7.35;;;6.60;;
54145;SDS011;40052;49.422;7.738;2022-07-23T13:05:59;10.10;;;6.28;;
54145;SDS011;40052;49.422;7.738;2022-07-23T13:08:27;6.57;;;5.88;;
54145;SDS011;40052;49.422;7.738;2022-07-23T13:10:54;7.90;;;6.15;;
54145;SDS011;40052;49.422;7.738;2022-07-23T13:13:24;7.47;;;6.07;;
54145;SDS011;40052;49.422;7.738;2022-07-23T13:15:56;8.60;;;6.15;;
54145;SDS011;40052;49.422;7.738;2022-07-23T13:18:22;7.30;;;6.57;;
54145;SDS011;40052;49.422;7.738;2022-07-23T13:20:48;7.13;;;6.43;;
54145;SDS011;40052;49.422;7.738;2022-07-23T13:23:14;6.82;;;6.22;;
54145;SDS011;40052;49.422;7.738;2022-07-23T13:25:43;8.07;;;6.15;;
54145;SDS011;40052;49.422;7.738;2022-07-23T13:28:11;8.23;;;6.25;;
54145;SDS011;40052;49.422;7.738;2022-07-23T13:30:37;6.40;;;5.80;;
54145;SDS011;40052;49.422;7.738;2022-07-23T13:33:03;7.45;;;6.50;;
54145;SDS011;40052;49.422;7.738;2022-07-23T13:35:29;7.28;;;6.57;;
54145;SDS011;40052;49.422;7.738;2022-07-23T13:37:55;10.93;;;6.10;;
54145;SDS011;40052;49.422;7.738;2022-07-23T13:40:21;7.15;;;6.43;;
54145;SDS011;40052;49.422;7.738;2022-07-23T13:42:46;6.68;;;6.03;;
54145;SDS011;40052;49.422;7.738;2022-07-23T13:45:12;7.07;;;6.30;;
54145;SDS011;40052;49.422;7.738;2022-07-23T13:47:39;7.20;;;6.50;;
54145;SDS011;40052;49.422;7.738;2022-07-23T13:50:07;7.95;;;6.40;;
54145;SDS011;40052;49.422;7.738;2022-07-23T13:52:33;7.45;;;6.45;;
54145;SDS011;40052;49.422;7.738;2022-07-23T13:55:00;6.75;;;5.95;;
54145;SDS011;40052;49.422;7.738;2022-07-23T13:57:26;6.97;;;6.05;;
54145;SDS011;40052;49.422;7.738;2022-07-23T13:59:52;8.30;;;6.53;;
54145;SDS011;40052;49.422;7.738;2022-07-23T14:02:17;7.22;;;6.53;;
54145;SDS011;40052;49.422;7.738;2022-07-23T14:04:43;7.00;;;6.32;;
54145;SDS011;40052;49.422;7.738;2022-07-23T14:07:09;7.07;;;6.38;;
54145;SDS011;40052;49.422;7.738;2022-07-23T14:09:37;8.05;;;6.70;;
54145;SDS011;40052;49.422;7.738;2022-07-23T14:12:05;6.95;;;6.28;;
54145;SDS011;40052;49.422;7.738;2022-07-23T14:14:33;8.02;;;6.85;;
54145;SDS011;40052;49.422;7.738;2022-07-23T14:16:59;7.60;;;6.90;;
54145;SDS011;40052;49.422;7.738;2022-07-23T14:19:27;7.90;;;7.10;;
54145;SDS011;40052;49.422;7.738;2022-07-23T14:21:54;7.35;;;6.65;;
54145;SDS011;40052;49.422;7.738;2022-07-23T14:24:20;9.57;;;7.95;;
54145;SDS011;40052;49.422;7.738;2022-07-23T14:26:48;7.70;;;6.95;;
54145;SDS011;40052;49.422;7.738;2022-07-23T14:29:15;8.85;;;7.43;;
54145;SDS011;40052;49.422;7.738;2022-07-23T14:31:43;9.57;;;7.38;;
54145;SDS011;40052;49.422;7.738;2022-07-23T14:34:09;8.05;;;7.25;;
54145;SDS011;40052;49.422;7.738;2022-07-23T14:36:36;10.30;;;6.95;;
54145;SDS011;40052;49.422;7.738;2022-07-23T14:39:02;7.25;;;6.53;;
54145;SDS011;40052;49.422;7.738;2022-07-23T14:41:30;7.70;;;6.32;;
54145;SDS011;40052;49.422;7.738;2022-07-23T14:43:56;7.72;;;6.93;;
54145;SDS011;40052;49.422;7.738;2022-07-23T14:46:21;7.82;;;6.88;;
54145;SDS011;40052;49.422;7.738;2022-07-23T14:48:47;7.53;;;6.47;;
54145;SDS011;40052;49.422;7.738;2022-07-23T14:51:12;7.85;;;6.90;;
54145;SDS011;40052;49.422;7.738;2022-07-23T14:53:37;7.78;;;6.70;;
54145;SDS011;40052;49.422;7.738;2022-07-23T14:56:03;8.02;;;7.22;;
54145;SDS011;40052;49.422;7.738;2022-07-23T14:58:32;7.82;;;7.03;;
54145;SDS011;40052;49.422;7.738;2022-07-23T15:00:57;8.73;;;7.82;;
54145;SDS011;40052;49.422;7.738;2022-07-23T15:03:22;8.73;;;6.68;;
54145;SDS011;40052;49.422;7.738;2022-07-23T15:05:49;8.15;;;6.97;;
54145;SDS011;40052;49.422;7.738;2022-07-23T15:08:14;9.57;;;7.03;;
54145;SDS011;40052;49.422;7.738;2022-07-23T15:10:40;9.98;;;7.00;;
54145;SDS011;40052;49.422;7.738;2022-07-23T15:13:07;8.63;;;6.88;;
54145;SDS011;40052;49.422;7.738;2022-07-23T15:15:33;6.72;;;6.05;;
54145;SDS011;40052;49.422;7.738;2022-07-23T15:18:02;8.25;;;6.57;;
54145;SDS011;40052;49.422;7.738;2022-07-23T15:20:30;7.03;;;6.32;;
54145;SDS011;40052;49.422;7.738;2022-07-23T15:22:56;8.82;;;6.57;;
54145;SDS011;40052;49.422;7.738;2022-07-23T15:25:22;8.55;;;6.07;;
54145;SDS011;40052;49.422;7.738;2022-07-23T15:27:48;7.35;;;6.68;;
54145;SDS011;40052;49.422;7.738;2022-07-23T15:30:16;7.05;;;5.60;;
54145;SDS011;40052;49.422;7.738;2022-07-23T15:32:41;7.43;;;6.40;;
54145;SDS011;40052;49.422;7.738;2022-07-23T15:35:07;7.07;;;6.40;;
54145;SDS011;40052;49.422;7.738;2022-07-23T15:37:33;6.97;;;6.30;;
54145;SDS011;40052;49.422;7.738;2022-07-23T15:40:01;7.80;;;6.63;;
54145;SDS011;40052;49.422;7.738;2022-07-23T15:42:30;7.57;;;6.28;;